sensor_id;sensor_type;location;lat;lon;timestamp;P1;durP1;ratioP1;P2;durP2;ratioP2
74568;SDS011;63052;50.266;7.968;2022-10-30T00:00:34;11.73;;;5.93;;
74568;SDS011;63052;50.266;7.968;2022-10-30T00:10:37;13.30;;;6.57;;
74568;SDS011;63052;50.266;7.968;2022-10-30T00:20:39;10.27;;;5.57;;
74568;SDS011;63052;50.266;7.968;2022-10-30T00:30:42;9.17;;;5.30;;
74568;SDS011;63052;50.266;7.968;2022-10-30T00:40:44;10.37;;;4.87;;
74568;SDS011;63052;50.266;7.968;2022-10-30T00:50:47;10.47;;;5.00;;
74568;SDS011;63052;50.266;7.968;2022-10-30T01:00:50;14.00;;;5.80;;
74568;SDS011;63052;50.266;7.968;2022-10-30T01:10:55;11.67;;;4.63;;
74568;SDS011;63052;50.266;7.968;2022-10-30T01:21:06;10.37;;;4.70;;
74568;SDS011;63052;50.266;7.968;2022-10-30T01:41:26;9.33;;;4.57;;
74568;SDS011;63052;50.266;7.968;2022-10-30T01:51:42;14.73;;;5.23;;
74568;SDS011;63052;50.266;7.968;2022-10-30T02:01:45;12.03;;;4.93;;
74568;SDS011;63052;50.266;7.968;2022-10-30T02:11:48;12.77;;;4.37;;
74568;SDS011;63052;50.266;7.968;2022-10-30T02:21:53;11.70;;;4.70;;
74568;SDS011;63052;50.266;7.968;2022-10-30T02:31:55;11.50;;;4.73;;
74568;SDS011;63052;50.266;7.968;2022-10-30T02:41:58;10.13;;;5.03;;
74568;SDS011;63052;50.266;7.968;2022-10-30T02:52:01;12.70;;;5.93;;
74568;SDS011;63052;50.266;7.968;2022-10-30T03:02:04;12.63;;;5.03;;
74568;SDS011;63052;50.266;7.968;2022-10-30T03:12:07;10.17;;;4.50;;
74568;SDS011;63052;50.266;7.968;2022-10-30T03:22:10;14.20;;;4.83;;
74568;SDS011;63052;50.266;7.968;2022-10-30T03:32:12;11.70;;;4.67;;
74568;SDS011;63052;50.266;7.968;2022-10-30T03:42:15;12.70;;;4.73;;
74568;SDS011;63052;50.266;7.968;2022-10-30T03:52:17;13.70;;;4.63;;
74568;SDS011;63052;50.266;7.968;2022-10-30T04:02:20;13.33;;;4.10;;
74568;SDS011;63052;50.266;7.968;2022-10-30T04:12:22;12.03;;;4.47;;
74568;SDS011;63052;50.266;7.968;2022-10-30T04:22:25;18.37;;;4.43;;
74568;SDS011;63052;50.266;7.968;2022-10-30T04:32:28;12.47;;;4.47;;
74568;SDS011;63052;50.266;7.968;2022-10-30T04:42:30;10.50;;;4.17;;
74568;SDS011;63052;50.266;7.968;2022-10-30T04:52:33;11.57;;;4.50;;
74568;SDS011;63052;50.266;7.968;2022-10-30T05:02:36;9.80;;;4.20;;
74568;SDS011;63052;50.266;7.968;2022-10-30T05:12:39;10.03;;;3.93;;
74568;SDS011;63052;50.266;7.968;2022-10-30T05:22:43;13.77;;;4.03;;
74568;SDS011;63052;50.266;7.968;2022-10-30T05:32:45;13.30;;;4.70;;
74568;SDS011;63052;50.266;7.968;2022-10-30T05:42:48;22.67;;;7.10;;
74568;SDS011;63052;50.266;7.968;2022-10-30T05:52:57;10.40;;;4.47;;
74568;SDS011;63052;50.266;7.968;2022-10-30T06:03:04;12.33;;;4.67;;
74568;SDS011;63052;50.266;7.968;2022-10-30T06:13:12;8.27;;;4.03;;
74568;SDS011;63052;50.266;7.968;2022-10-30T06:23:14;11.20;;;4.37;;
74568;SDS011;63052;50.266;7.968;2022-10-30T06:33:17;11.53;;;4.10;;
74568;SDS011;63052;50.266;7.968;2022-10-30T06:43:19;11.37;;;4.60;;
74568;SDS011;63052;50.266;7.968;2022-10-30T06:53:22;15.13;;;4.30;;
74568;SDS011;63052;50.266;7.968;2022-10-30T07:03:24;14.23;;;4.27;;
74568;SDS011;63052;50.266;7.968;2022-10-30T07:13:27;15.80;;;4.87;;
74568;SDS011;63052;50.266;7.968;2022-10-30T07:23:29;15.67;;;5.50;;
74568;SDS011;63052;50.266;7.968;2022-10-30T07:33:32;14.03;;;4.30;;
74568;SDS011;63052;50.266;7.968;2022-10-30T07:43:34;17.17;;;3.87;;
74568;SDS011;63052;50.266;7.968;2022-10-30T07:53:37;16.70;;;5.73;;
74568;SDS011;63052;50.266;7.968;2022-10-30T08:03:41;14.03;;;5.30;;
74568;SDS011;63052;50.266;7.968;2022-10-30T08:13:44;30.80;;;7.27;;
74568;SDS011;63052;50.266;7.968;2022-10-30T08:23:46;34.83;;;9.57;;
74568;SDS011;63052;50.266;7.968;2022-10-30T08:33:51;22.30;;;6.63;;
74568;SDS011;63052;50.266;7.968;2022-10-30T08:43:53;31.90;;;7.03;;
74568;SDS011;63052;50.266;7.968;2022-10-30T08:53:56;30.97;;;8.67;;
74568;SDS011;63052;50.266;7.968;2022-10-30T09:03:58;22.70;;;7.23;;
74568;SDS011;63052;50.266;7.968;2022-10-30T09:14:01;26.10;;;7.97;;
74568;SDS011;63052;50.266;7.968;2022-10-30T09:24:03;27.90;;;6.67;;
74568;SDS011;63052;50.266;7.968;2022-10-30T09:34:06;17.27;;;5.23;;
74568;SDS011;63052;50.266;7.968;2022-10-30T09:44:22;15.53;;;5.90;;
74568;SDS011;63052;50.266;7.968;2022-10-30T09:54:39;18.23;;;4.97;;
74568;SDS011;63052;50.266;7.968;2022-10-30T10:04:50;16.40;;;4.73;;
74568;SDS011;63052;50.266;7.968;2022-10-30T10:14:55;10.80;;;4.77;;
74568;SDS011;63052;50.266;7.968;2022-10-30T10:25:00;12.53;;;4.37;;
74568;SDS011;63052;50.266;7.968;2022-10-30T10:35:31;9.27;;;3.77;;
74568;SDS011;63052;50.266;7.968;2022-10-30T10:55:51;15.03;;;5.07;;
74568;SDS011;63052;50.266;7.968;2022-10-30T11:06:03;9.57;;;3.93;;
74568;SDS011;63052;50.266;7.968;2022-10-30T11:26:32;9.87;;;3.40;;
74568;SDS011;63052;50.266;7.968;2022-10-30T11:36:35;9.30;;;3.53;;
74568;SDS011;63052;50.266;7.968;2022-10-30T11:46:37;10.23;;;3.80;;
74568;SDS011;63052;50.266;7.968;2022-10-30T11:56:43;11.67;;;3.80;;
74568;SDS011;63052;50.266;7.968;2022-10-30T12:06:46;7.67;;;3.07;;
74568;SDS011;63052;50.266;7.968;2022-10-30T12:16:54;8.20;;;3.07;;
74568;SDS011;63052;50.266;7.968;2022-10-30T12:26:53;6.20;;;3.23;;
74568;SDS011;63052;50.266;7.968;2022-10-30T12:37:02;6.03;;;3.03;;
74568;SDS011;63052;50.266;7.968;2022-10-30T12:47:03;7.40;;;3.43;;
74568;SDS011;63052;50.266;7.968;2022-10-30T12:57:21;13.10;;;5.80;;
74568;SDS011;63052;50.266;7.968;2022-10-30T13:17:45;23.37;;;11.13;;
74568;SDS011;63052;50.266;7.968;2022-10-30T13:27:50;27.33;;;11.70;;
74568;SDS011;63052;50.266;7.968;2022-10-30T13:59:04;15.30;;;8.10;;
74568;SDS011;63052;50.266;7.968;2022-10-30T14:19:28;14.53;;;5.63;;
74568;SDS011;63052;50.266;7.968;2022-10-30T14:39:45;7.83;;;4.03;;
74568;SDS011;63052;50.266;7.968;2022-10-30T14:50:00;7.93;;;5.13;;
74568;SDS011;63052;50.266;7.968;2022-10-30T15:20:33;9.33;;;4.57;;
74568;SDS011;63052;50.266;7.968;2022-10-30T15:30:38;9.77;;;4.23;;
74568;SDS011;63052;50.266;7.968;2022-10-30T15:40:43;9.27;;;3.83;;
74568;SDS011;63052;50.266;7.968;2022-10-30T15:50:51;8.13;;;4.03;;
74568;SDS011;63052;50.266;7.968;2022-10-30T16:00:58;6.83;;;2.93;;
74568;SDS011;63052;50.266;7.968;2022-10-30T16:11:01;9.50;;;3.37;;
74568;SDS011;63052;50.266;7.968;2022-10-30T16:21:06;6.47;;;3.60;;
74568;SDS011;63052;50.266;7.968;2022-10-30T16:31:09;7.43;;;3.73;;
74568;SDS011;63052;50.266;7.968;2022-10-30T16:41:14;8.83;;;4.00;;
74568;SDS011;63052;50.266;7.968;2022-10-30T16:51:18;7.90;;;3.70;;
74568;SDS011;63052;50.266;7.968;2022-10-30T17:01:27;13.37;;;5.63;;
74568;SDS011;63052;50.266;7.968;2022-10-30T17:11:34;14.87;;;5.20;;
74568;SDS011;63052;50.266;7.968;2022-10-30T17:21:41;15.20;;;5.07;;
74568;SDS011;63052;50.266;7.968;2022-10-30T17:31:44;12.60;;;4.57;;
74568;SDS011;63052;50.266;7.968;2022-10-30T17:41:48;10.63;;;4.07;;
74568;SDS011;63052;50.266;7.968;2022-10-30T17:51:52;15.27;;;4.57;;
74568;SDS011;63052;50.266;7.968;2022-10-30T18:01:54;17.40;;;4.43;;
74568;SDS011;63052;50.266;7.968;2022-10-30T18:11:57;9.97;;;4.07;;
74568;SDS011;63052;50.266;7.968;2022-10-30T18:21:59;14.83;;;4.60;;
74568;SDS011;63052;50.266;7.968;2022-10-30T18:32:02;9.27;;;3.33;;
74568;SDS011;63052;50.266;7.968;2022-10-30T18:42:06;9.70;;;4.73;;
74568;SDS011;63052;50.266;7.968;2022-10-30T18:52:09;7.77;;;3.10;;
74568;SDS011;63052;50.266;7.968;2022-10-30T19:02:15;12.00;;;3.70;;
74568;SDS011;63052;50.266;7.968;2022-10-30T19:12:23;8.13;;;3.30;;
74568;SDS011;63052;50.266;7.968;2022-10-30T19:22:26;13.30;;;4.67;;
74568;SDS011;63052;50.266;7.968;2022-10-30T19:32:29;8.43;;;4.00;;
74568;SDS011;63052;50.266;7.968;2022-10-30T19:42:31;15.23;;;3.87;;
74568;SDS011;63052;50.266;7.968;2022-10-30T19:52:34;10.43;;;3.93;;
74568;SDS011;63052;50.266;7.968;2022-10-30T20:02:36;7.07;;;3.50;;
74568;SDS011;63052;50.266;7.968;2022-10-30T20:12:39;8.47;;;3.47;;
74568;SDS011;63052;50.266;7.968;2022-10-30T20:22:41;8.17;;;3.50;;
74568;SDS011;63052;50.266;7.968;2022-10-30T20:32:44;9.80;;;3.10;;
74568;SDS011;63052;50.266;7.968;2022-10-30T20:42:47;11.00;;;3.17;;
74568;SDS011;63052;50.266;7.968;2022-10-30T20:52:49;5.57;;;3.13;;
74568;SDS011;63052;50.266;7.968;2022-10-30T21:02:53;6.00;;;3.40;;
74568;SDS011;63052;50.266;7.968;2022-10-30T21:12:55;12.30;;;3.73;;
74568;SDS011;63052;50.266;7.968;2022-10-30T21:22:58;8.23;;;3.30;;
74568;SDS011;63052;50.266;7.968;2022-10-30T21:33:00;6.97;;;3.47;;
74568;SDS011;63052;50.266;7.968;2022-10-30T21:43:03;11.97;;;3.70;;
74568;SDS011;63052;50.266;7.968;2022-10-30T21:53:05;8.03;;;4.03;;
74568;SDS011;63052;50.266;7.968;2022-10-30T22:03:08;8.33;;;3.23;;
74568;SDS011;63052;50.266;7.968;2022-10-30T22:13:11;13.50;;;3.83;;
74568;SDS011;63052;50.266;7.968;2022-10-30T22:23:14;10.40;;;3.47;;
74568;SDS011;63052;50.266;7.968;2022-10-30T22:33:17;7.67;;;3.10;;
74568;SDS011;63052;50.266;7.968;2022-10-30T22:43:20;7.17;;;3.47;;
74568;SDS011;63052;50.266;7.968;2022-10-30T22:53:23;9.33;;;3.60;;
74568;SDS011;63052;50.266;7.968;2022-10-30T23:03:27;11.73;;;2.73;;
74568;SDS011;63052;50.266;7.968;2022-10-30T23:13:31;5.20;;;2.70;;
74568;SDS011;63052;50.266;7.968;2022-10-30T23:23:35;8.23;;;3.27;;
74568;SDS011;63052;50.266;7.968;2022-10-30T23:33:38;6.67;;;3.03;;
74568;SDS011;63052;50.266;7.968;2022-10-30T23:43:41;6.97;;;3.10;;
74568;SDS011;63052;50.266;7.968;2022-10-30T23:53:44;5.73;;;3.23;;
